sensor_id;sensor_type;location;lat;lon;timestamp;P1;durP1;ratioP1;P2;durP2;ratioP2
3747;SDS011;1889;50.058;8.688;2023-02-13T00:01:36;5.22;;;4.03;;
3747;SDS011;1889;50.058;8.688;2023-02-13T00:04:05;5.90;;;4.70;;
3747;SDS011;1889;50.058;8.688;2023-02-13T00:06:35;5.00;;;3.98;;
3747;SDS011;1889;50.058;8.688;2023-02-13T00:09:04;5.65;;;4.87;;
3747;SDS011;1889;50.058;8.688;2023-02-13T00:11:35;6.33;;;4.60;;
3747;SDS011;1889;50.058;8.688;2023-02-13T00:14:05;6.33;;;4.62;;
3747;SDS011;1889;50.058;8.688;2023-02-13T00:16:34;6.58;;;5.53;;
3747;SDS011;1889;50.058;8.688;2023-02-13T00:19:04;7.67;;;5.55;;
3747;SDS011;1889;50.058;8.688;2023-02-13T00:21:33;6.80;;;5.28;;
3747;SDS011;1889;50.058;8.688;2023-02-13T00:24:02;7.37;;;5.10;;
3747;SDS011;1889;50.058;8.688;2023-02-13T00:26:32;6.20;;;5.22;;
3747;SDS011;1889;50.058;8.688;2023-02-13T00:29:01;7.47;;;5.80;;
3747;SDS011;1889;50.058;8.688;2023-02-13T00:31:30;7.95;;;5.83;;
3747;SDS011;1889;50.058;8.688;2023-02-13T00:34:00;7.12;;;5.53;;
3747;SDS011;1889;50.058;8.688;2023-02-13T00:36:29;9.10;;;6.33;;
3747;SDS011;1889;50.058;8.688;2023-02-13T00:38:58;8.68;;;6.17;;
3747;SDS011;1889;50.058;8.688;2023-02-13T00:41:28;9.53;;;6.75;;
3747;SDS011;1889;50.058;8.688;2023-02-13T00:43:58;7.10;;;6.17;;
3747;SDS011;1889;50.058;8.688;2023-02-13T00:46:27;9.50;;;6.78;;
3747;SDS011;1889;50.058;8.688;2023-02-13T00:48:56;9.53;;;6.70;;
3747;SDS011;1889;50.058;8.688;2023-02-13T00:51:26;9.10;;;6.83;;
3747;SDS011;1889;50.058;8.688;2023-02-13T00:53:56;12.43;;;7.95;;
3747;SDS011;1889;50.058;8.688;2023-02-13T00:56:25;9.85;;;7.40;;
3747;SDS011;1889;50.058;8.688;2023-02-13T00:58:55;10.38;;;7.67;;
3747;SDS011;1889;50.058;8.688;2023-02-13T01:01:24;10.98;;;8.13;;
3747;SDS011;1889;50.058;8.688;2023-02-13T01:03:53;11.85;;;8.10;;
3747;SDS011;1889;50.058;8.688;2023-02-13T01:06:24;11.78;;;7.53;;
3747;SDS011;1889;50.058;8.688;2023-02-13T01:08:53;9.00;;;7.10;;
3747;SDS011;1889;50.058;8.688;2023-02-13T01:11:22;9.30;;;7.20;;
3747;SDS011;1889;50.058;8.688;2023-02-13T01:13:52;10.93;;;7.87;;
3747;SDS011;1889;50.058;8.688;2023-02-13T01:16:21;13.10;;;8.75;;
3747;SDS011;1889;50.058;8.688;2023-02-13T01:18:50;11.22;;;8.13;;
3747;SDS011;1889;50.058;8.688;2023-02-13T01:21:20;10.95;;;8.50;;
3747;SDS011;1889;50.058;8.688;2023-02-13T01:23:50;11.15;;;8.80;;
3747;SDS011;1889;50.058;8.688;2023-02-13T01:26:21;12.35;;;8.65;;
3747;SDS011;1889;50.058;8.688;2023-02-13T01:28:52;12.85;;;9.23;;
3747;SDS011;1889;50.058;8.688;2023-02-13T01:31:24;13.58;;;9.05;;
3747;SDS011;1889;50.058;8.688;2023-02-13T01:33:57;11.50;;;8.90;;
3747;SDS011;1889;50.058;8.688;2023-02-13T01:36:26;12.23;;;8.90;;
3747;SDS011;1889;50.058;8.688;2023-02-13T01:38:56;13.68;;;9.28;;
3747;SDS011;1889;50.058;8.688;2023-02-13T01:41:26;13.00;;;9.75;;
3747;SDS011;1889;50.058;8.688;2023-02-13T01:43:57;12.45;;;9.20;;
3747;SDS011;1889;50.058;8.688;2023-02-13T01:46:38;10.18;;;8.05;;
3747;SDS011;1889;50.058;8.688;2023-02-13T01:49:13;11.22;;;7.90;;
3747;SDS011;1889;50.058;8.688;2023-02-13T01:51:45;13.20;;;8.70;;
3747;SDS011;1889;50.058;8.688;2023-02-13T01:54:17;11.12;;;8.13;;
3747;SDS011;1889;50.058;8.688;2023-02-13T01:56:50;13.55;;;9.03;;
3747;SDS011;1889;50.058;8.688;2023-02-13T01:59:24;11.18;;;8.00;;
3747;SDS011;1889;50.058;8.688;2023-02-13T02:01:54;10.98;;;9.20;;
3747;SDS011;1889;50.058;8.688;2023-02-13T02:04:26;10.58;;;7.90;;
3747;SDS011;1889;50.058;8.688;2023-02-13T02:06:59;11.53;;;7.78;;
3747;SDS011;1889;50.058;8.688;2023-02-13T02:09:34;12.30;;;9.03;;
3747;SDS011;1889;50.058;8.688;2023-02-13T02:12:17;12.10;;;8.68;;
3747;SDS011;1889;50.058;8.688;2023-02-13T02:14:46;11.12;;;8.13;;
3747;SDS011;1889;50.058;8.688;2023-02-13T02:17:17;10.48;;;7.65;;
3747;SDS011;1889;50.058;8.688;2023-02-13T02:25:17;11.43;;;8.15;;
3747;SDS011;1889;50.058;8.688;2023-02-13T02:28:22;13.70;;;8.85;;
3747;SDS011;1889;50.058;8.688;2023-02-13T02:31:02;12.90;;;8.40;;
3747;SDS011;1889;50.058;8.688;2023-02-13T02:36:41;11.90;;;7.87;;
3747;SDS011;1889;50.058;8.688;2023-02-13T02:39:21;10.00;;;7.60;;
3747;SDS011;1889;50.058;8.688;2023-02-13T02:44:50;13.18;;;7.83;;
3747;SDS011;1889;50.058;8.688;2023-02-13T02:47:32;10.98;;;7.42;;
3747;SDS011;1889;50.058;8.688;2023-02-13T02:50:37;11.63;;;7.47;;
3747;SDS011;1889;50.058;8.688;2023-02-13T02:55:57;12.45;;;7.78;;
3747;SDS011;1889;50.058;8.688;2023-02-13T03:01:49;11.78;;;7.30;;
3747;SDS011;1889;50.058;8.688;2023-02-13T03:04:38;11.48;;;7.67;;
3747;SDS011;1889;50.058;8.688;2023-02-13T03:07:27;10.40;;;7.15;;
3747;SDS011;1889;50.058;8.688;2023-02-13T03:09:57;10.68;;;7.47;;
3747;SDS011;1889;50.058;8.688;2023-02-13T03:13:06;12.37;;;7.75;;
3747;SDS011;1889;50.058;8.688;2023-02-13T03:15:50;11.85;;;8.35;;
3747;SDS011;1889;50.058;8.688;2023-02-13T03:18:40;11.68;;;8.15;;
3747;SDS011;1889;50.058;8.688;2023-02-13T03:24:58;10.55;;;7.17;;
3747;SDS011;1889;50.058;8.688;2023-02-13T03:27:48;8.53;;;6.72;;
3747;SDS011;1889;50.058;8.688;2023-02-13T03:30:56;11.65;;;7.40;;
3747;SDS011;1889;50.058;8.688;2023-02-13T03:36:49;10.20;;;6.35;;
3747;SDS011;1889;50.058;8.688;2023-02-13T03:39:46;12.23;;;7.28;;
3747;SDS011;1889;50.058;8.688;2023-02-13T03:45:05;9.75;;;6.45;;
3747;SDS011;1889;50.058;8.688;2023-02-13T03:47:53;10.10;;;6.78;;
3747;SDS011;1889;50.058;8.688;2023-02-13T03:50:25;10.15;;;6.75;;
3747;SDS011;1889;50.058;8.688;2023-02-13T03:53:00;12.45;;;8.05;;
3747;SDS011;1889;50.058;8.688;2023-02-13T03:55:37;10.53;;;7.40;;
3747;SDS011;1889;50.058;8.688;2023-02-13T03:58:35;9.93;;;6.85;;
3747;SDS011;1889;50.058;8.688;2023-02-13T04:01:24;11.73;;;8.40;;
3747;SDS011;1889;50.058;8.688;2023-02-13T04:06:43;9.48;;;7.05;;
3747;SDS011;1889;50.058;8.688;2023-02-13T04:09:14;9.98;;;7.03;;
3747;SDS011;1889;50.058;8.688;2023-02-13T04:11:48;9.75;;;7.17;;
3747;SDS011;1889;50.058;8.688;2023-02-13T04:14:27;9.45;;;6.62;;
3747;SDS011;1889;50.058;8.688;2023-02-13T04:17:04;11.90;;;7.55;;
3747;SDS011;1889;50.058;8.688;2023-02-13T04:19:35;10.13;;;6.70;;
3747;SDS011;1889;50.058;8.688;2023-02-13T04:22:05;10.63;;;7.42;;
3747;SDS011;1889;50.058;8.688;2023-02-13T04:24:34;9.65;;;6.28;;
3747;SDS011;1889;50.058;8.688;2023-02-13T04:27:04;10.50;;;6.92;;
3747;SDS011;1889;50.058;8.688;2023-02-13T04:29:33;11.65;;;7.60;;
3747;SDS011;1889;50.058;8.688;2023-02-13T04:32:02;11.05;;;7.00;;
3747;SDS011;1889;50.058;8.688;2023-02-13T04:34:32;11.78;;;7.45;;
3747;SDS011;1889;50.058;8.688;2023-02-13T04:37:01;11.95;;;6.72;;
3747;SDS011;1889;50.058;8.688;2023-02-13T04:39:30;10.45;;;7.00;;
3747;SDS011;1889;50.058;8.688;2023-02-13T04:42:00;10.60;;;7.22;;
3747;SDS011;1889;50.058;8.688;2023-02-13T04:44:29;11.22;;;6.62;;
3747;SDS011;1889;50.058;8.688;2023-02-13T04:46:58;9.80;;;6.78;;
3747;SDS011;1889;50.058;8.688;2023-02-13T04:49:28;11.45;;;6.47;;
3747;SDS011;1889;50.058;8.688;2023-02-13T04:51:57;11.88;;;7.42;;
3747;SDS011;1889;50.058;8.688;2023-02-13T04:54:26;9.98;;;6.87;;
3747;SDS011;1889;50.058;8.688;2023-02-13T04:56:56;10.53;;;6.97;;
3747;SDS011;1889;50.058;8.688;2023-02-13T04:59:25;9.48;;;6.95;;
3747;SDS011;1889;50.058;8.688;2023-02-13T05:01:54;9.45;;;6.60;;
3747;SDS011;1889;50.058;8.688;2023-02-13T05:04:25;9.55;;;6.80;;
3747;SDS011;1889;50.058;8.688;2023-02-13T05:06:55;10.38;;;7.33;;
3747;SDS011;1889;50.058;8.688;2023-02-13T05:09:24;10.38;;;7.28;;
3747;SDS011;1889;50.058;8.688;2023-02-13T05:11:53;13.05;;;6.72;;
3747;SDS011;1889;50.058;8.688;2023-02-13T05:14:23;10.00;;;7.67;;
3747;SDS011;1889;50.058;8.688;2023-02-13T05:16:52;11.35;;;7.90;;
3747;SDS011;1889;50.058;8.688;2023-02-13T05:19:21;11.33;;;7.35;;
3747;SDS011;1889;50.058;8.688;2023-02-13T05:21:51;10.93;;;7.53;;
3747;SDS011;1889;50.058;8.688;2023-02-13T05:24:37;12.82;;;7.30;;
3747;SDS011;1889;50.058;8.688;2023-02-13T05:27:07;13.03;;;8.03;;
3747;SDS011;1889;50.058;8.688;2023-02-13T05:29:36;11.75;;;7.35;;
3747;SDS011;1889;50.058;8.688;2023-02-13T05:32:05;13.32;;;8.13;;
3747;SDS011;1889;50.058;8.688;2023-02-13T05:34:35;10.80;;;7.95;;
3747;SDS011;1889;50.058;8.688;2023-02-13T05:37:04;11.30;;;7.53;;
3747;SDS011;1889;50.058;8.688;2023-02-13T05:39:33;11.53;;;8.05;;
3747;SDS011;1889;50.058;8.688;2023-02-13T05:42:03;12.85;;;8.23;;
3747;SDS011;1889;50.058;8.688;2023-02-13T05:44:32;14.85;;;8.75;;
3747;SDS011;1889;50.058;8.688;2023-02-13T05:47:02;13.32;;;8.68;;
3747;SDS011;1889;50.058;8.688;2023-02-13T05:49:31;15.32;;;9.28;;
3747;SDS011;1889;50.058;8.688;2023-02-13T05:52:00;11.53;;;8.08;;
3747;SDS011;1889;50.058;8.688;2023-02-13T05:54:30;13.62;;;8.60;;
3747;SDS011;1889;50.058;8.688;2023-02-13T05:56:59;11.80;;;8.38;;
3747;SDS011;1889;50.058;8.688;2023-02-13T05:59:28;13.10;;;8.50;;
3747;SDS011;1889;50.058;8.688;2023-02-13T06:01:58;14.07;;;8.93;;
3747;SDS011;1889;50.058;8.688;2023-02-13T06:04:27;13.93;;;9.38;;
3747;SDS011;1889;50.058;8.688;2023-02-13T06:06:56;14.20;;;8.70;;
3747;SDS011;1889;50.058;8.688;2023-02-13T06:09:26;13.45;;;8.23;;
3747;SDS011;1889;50.058;8.688;2023-02-13T06:11:55;14.07;;;8.50;;
3747;SDS011;1889;50.058;8.688;2023-02-13T06:14:24;16.30;;;10.40;;
3747;SDS011;1889;50.058;8.688;2023-02-13T06:16:54;13.80;;;8.48;;
3747;SDS011;1889;50.058;8.688;2023-02-13T06:19:23;15.00;;;8.78;;
3747;SDS011;1889;50.058;8.688;2023-02-13T06:21:52;12.60;;;8.35;;
3747;SDS011;1889;50.058;8.688;2023-02-13T06:24:21;16.02;;;9.28;;
3747;SDS011;1889;50.058;8.688;2023-02-13T06:26:51;12.40;;;8.70;;
3747;SDS011;1889;50.058;8.688;2023-02-13T06:29:20;14.80;;;8.63;;
3747;SDS011;1889;50.058;8.688;2023-02-13T06:31:49;14.23;;;9.35;;
3747;SDS011;1889;50.058;8.688;2023-02-13T06:34:19;16.25;;;10.10;;
3747;SDS011;1889;50.058;8.688;2023-02-13T06:36:48;15.68;;;10.55;;
3747;SDS011;1889;50.058;8.688;2023-02-13T06:39:19;16.42;;;10.90;;
3747;SDS011;1889;50.058;8.688;2023-02-13T06:41:48;16.50;;;9.83;;
3747;SDS011;1889;50.058;8.688;2023-02-13T06:44:17;18.87;;;11.22;;
3747;SDS011;1889;50.058;8.688;2023-02-13T06:46:47;16.48;;;10.58;;
3747;SDS011;1889;50.058;8.688;2023-02-13T06:49:16;15.83;;;10.60;;
3747;SDS011;1889;50.058;8.688;2023-02-13T06:51:45;16.73;;;10.48;;
3747;SDS011;1889;50.058;8.688;2023-02-13T06:54:15;16.40;;;10.85;;
3747;SDS011;1889;50.058;8.688;2023-02-13T06:56:44;18.35;;;11.43;;
3747;SDS011;1889;50.058;8.688;2023-02-13T06:59:13;20.77;;;12.25;;
3747;SDS011;1889;50.058;8.688;2023-02-13T07:01:43;18.27;;;11.25;;
3747;SDS011;1889;50.058;8.688;2023-02-13T07:04:12;17.65;;;11.93;;
3747;SDS011;1889;50.058;8.688;2023-02-13T07:06:41;17.87;;;11.80;;
3747;SDS011;1889;50.058;8.688;2023-02-13T07:09:11;17.77;;;11.25;;
3747;SDS011;1889;50.058;8.688;2023-02-13T07:11:40;23.45;;;11.68;;
3747;SDS011;1889;50.058;8.688;2023-02-13T07:14:09;18.98;;;11.88;;
3747;SDS011;1889;50.058;8.688;2023-02-13T07:16:39;19.15;;;11.90;;
3747;SDS011;1889;50.058;8.688;2023-02-13T07:19:08;17.65;;;10.88;;
3747;SDS011;1889;50.058;8.688;2023-02-13T07:21:37;20.70;;;12.20;;
3747;SDS011;1889;50.058;8.688;2023-02-13T07:24:07;16.62;;;11.00;;
3747;SDS011;1889;50.058;8.688;2023-02-13T07:26:36;18.77;;;12.23;;
3747;SDS011;1889;50.058;8.688;2023-02-13T07:29:05;19.05;;;12.13;;
3747;SDS011;1889;50.058;8.688;2023-02-13T07:31:35;17.73;;;10.95;;
3747;SDS011;1889;50.058;8.688;2023-02-13T07:34:05;19.35;;;11.83;;
3747;SDS011;1889;50.058;8.688;2023-02-13T07:36:35;20.90;;;11.83;;
3747;SDS011;1889;50.058;8.688;2023-02-13T07:39:04;17.62;;;11.25;;
3747;SDS011;1889;50.058;8.688;2023-02-13T07:41:33;19.98;;;12.85;;
3747;SDS011;1889;50.058;8.688;2023-02-13T07:44:03;19.95;;;12.23;;
3747;SDS011;1889;50.058;8.688;2023-02-13T07:46:32;21.05;;;11.83;;
3747;SDS011;1889;50.058;8.688;2023-02-13T07:49:02;19.15;;;11.80;;
3747;SDS011;1889;50.058;8.688;2023-02-13T07:51:31;18.37;;;11.28;;
3747;SDS011;1889;50.058;8.688;2023-02-13T07:54:00;20.68;;;12.20;;
3747;SDS011;1889;50.058;8.688;2023-02-13T07:56:30;20.95;;;12.03;;
3747;SDS011;1889;50.058;8.688;2023-02-13T07:58:59;18.90;;;12.25;;
3747;SDS011;1889;50.058;8.688;2023-02-13T08:01:29;19.37;;;12.63;;
3747;SDS011;1889;50.058;8.688;2023-02-13T08:03:58;18.80;;;10.98;;
3747;SDS011;1889;50.058;8.688;2023-02-13T08:06:27;19.73;;;12.15;;
3747;SDS011;1889;50.058;8.688;2023-02-13T08:08:57;18.95;;;12.23;;
3747;SDS011;1889;50.058;8.688;2023-02-13T08:11:44;20.25;;;11.80;;
3747;SDS011;1889;50.058;8.688;2023-02-13T08:14:23;19.52;;;11.88;;
3747;SDS011;1889;50.058;8.688;2023-02-13T08:16:53;16.30;;;10.82;;
3747;SDS011;1889;50.058;8.688;2023-02-13T08:19:23;16.27;;;9.85;;
3747;SDS011;1889;50.058;8.688;2023-02-13T08:21:52;17.95;;;10.55;;
3747;SDS011;1889;50.058;8.688;2023-02-13T08:24:21;13.90;;;9.58;;
3747;SDS011;1889;50.058;8.688;2023-02-13T08:26:51;13.90;;;9.93;;
3747;SDS011;1889;50.058;8.688;2023-02-13T08:29:20;13.83;;;9.93;;
3747;SDS011;1889;50.058;8.688;2023-02-13T08:31:50;15.45;;;10.38;;
3747;SDS011;1889;50.058;8.688;2023-02-13T08:34:19;15.13;;;9.63;;
3747;SDS011;1889;50.058;8.688;2023-02-13T08:36:48;16.05;;;9.93;;
3747;SDS011;1889;50.058;8.688;2023-02-13T08:39:18;16.00;;;9.80;;
3747;SDS011;1889;50.058;8.688;2023-02-13T08:41:47;15.50;;;10.23;;
3747;SDS011;1889;50.058;8.688;2023-02-13T08:44:16;15.55;;;10.00;;
3747;SDS011;1889;50.058;8.688;2023-02-13T08:46:46;14.80;;;9.05;;
3747;SDS011;1889;50.058;8.688;2023-02-13T08:49:15;13.18;;;8.08;;
3747;SDS011;1889;50.058;8.688;2023-02-13T08:51:44;13.88;;;9.53;;
3747;SDS011;1889;50.058;8.688;2023-02-13T08:54:14;13.45;;;8.85;;
3747;SDS011;1889;50.058;8.688;2023-02-13T08:56:43;13.18;;;9.40;;
3747;SDS011;1889;50.058;8.688;2023-02-13T08:59:12;13.32;;;8.63;;
3747;SDS011;1889;50.058;8.688;2023-02-13T09:01:42;14.70;;;9.03;;
3747;SDS011;1889;50.058;8.688;2023-02-13T09:04:11;13.80;;;8.33;;
3747;SDS011;1889;50.058;8.688;2023-02-13T09:06:44;14.75;;;8.90;;
3747;SDS011;1889;50.058;8.688;2023-02-13T09:09:14;16.97;;;9.60;;
3747;SDS011;1889;50.058;8.688;2023-02-13T09:11:43;17.77;;;10.18;;
3747;SDS011;1889;50.058;8.688;2023-02-13T09:14:12;11.85;;;8.75;;
3747;SDS011;1889;50.058;8.688;2023-02-13T09:16:42;14.30;;;9.28;;
3747;SDS011;1889;50.058;8.688;2023-02-13T09:19:11;14.73;;;9.93;;
3747;SDS011;1889;50.058;8.688;2023-02-13T09:21:40;14.45;;;9.20;;
3747;SDS011;1889;50.058;8.688;2023-02-13T09:24:10;14.80;;;10.43;;
3747;SDS011;1889;50.058;8.688;2023-02-13T09:26:39;13.15;;;9.43;;
3747;SDS011;1889;50.058;8.688;2023-02-13T09:29:08;16.05;;;9.95;;
3747;SDS011;1889;50.058;8.688;2023-02-13T09:31:38;12.53;;;8.60;;
3747;SDS011;1889;50.058;8.688;2023-02-13T09:34:07;16.55;;;10.35;;
3747;SDS011;1889;50.058;8.688;2023-02-13T09:36:36;14.63;;;9.55;;
3747;SDS011;1889;50.058;8.688;2023-02-13T09:39:06;15.63;;;10.05;;
3747;SDS011;1889;50.058;8.688;2023-02-13T09:41:38;13.48;;;9.83;;
3747;SDS011;1889;50.058;8.688;2023-02-13T09:46:43;15.63;;;10.48;;
3747;SDS011;1889;50.058;8.688;2023-02-13T09:49:14;15.40;;;10.00;;
3747;SDS011;1889;50.058;8.688;2023-02-13T09:51:46;14.33;;;9.95;;
3747;SDS011;1889;50.058;8.688;2023-02-13T09:54:18;15.05;;;10.15;;
3747;SDS011;1889;50.058;8.688;2023-02-13T10:02:19;17.12;;;10.20;;
3747;SDS011;1889;50.058;8.688;2023-02-13T10:05:45;14.07;;;9.18;;
3747;SDS011;1889;50.058;8.688;2023-02-13T10:07:48;15.40;;;10.35;;
3747;SDS011;1889;50.058;8.688;2023-02-13T10:15:56;12.82;;;8.38;;
3747;SDS011;1889;50.058;8.688;2023-02-13T10:18:52;12.30;;;8.85;;
3747;SDS011;1889;50.058;8.688;2023-02-13T10:21:20;15.28;;;9.45;;
3747;SDS011;1889;50.058;8.688;2023-02-13T10:24:04;12.30;;;8.38;;
3747;SDS011;1889;50.058;8.688;2023-02-13T10:26:37;15.25;;;10.00;;
3747;SDS011;1889;50.058;8.688;2023-02-13T10:29:14;17.80;;;9.00;;
3747;SDS011;1889;50.058;8.688;2023-02-13T10:32:03;11.80;;;8.00;;
3747;SDS011;1889;50.058;8.688;2023-02-13T10:34:41;11.40;;;8.20;;
3747;SDS011;1889;50.058;8.688;2023-02-13T10:37:09;10.78;;;8.10;;
3747;SDS011;1889;50.058;8.688;2023-02-13T10:39:40;11.68;;;8.25;;
3747;SDS011;1889;50.058;8.688;2023-02-13T10:45:38;13.13;;;8.13;;
3747;SDS011;1889;50.058;8.688;2023-02-13T10:47:44;11.93;;;7.72;;
3747;SDS011;1889;50.058;8.688;2023-02-13T10:50:33;11.35;;;7.92;;
3747;SDS011;1889;50.058;8.688;2023-02-13T10:53:13;12.18;;;9.43;;
3747;SDS011;1889;50.058;8.688;2023-02-13T10:58:38;9.73;;;7.25;;
3747;SDS011;1889;50.058;8.688;2023-02-13T11:04:20;9.98;;;7.58;;
3747;SDS011;1889;50.058;8.688;2023-02-13T11:06:59;10.48;;;7.25;;
3747;SDS011;1889;50.058;8.688;2023-02-13T11:09:31;10.63;;;7.22;;
3747;SDS011;1889;50.058;8.688;2023-02-13T11:17:29;8.93;;;7.20;;
3747;SDS011;1889;50.058;8.688;2023-02-13T11:20:48;9.60;;;7.45;;
3747;SDS011;1889;50.058;8.688;2023-02-13T11:22:37;9.70;;;6.75;;
3747;SDS011;1889;50.058;8.688;2023-02-13T11:28:13;8.95;;;6.58;;
3747;SDS011;1889;50.058;8.688;2023-02-13T11:30:37;7.78;;;6.50;;
3747;SDS011;1889;50.058;8.688;2023-02-13T11:36:04;7.17;;;6.40;;
3747;SDS011;1889;50.058;8.688;2023-02-13T11:38:35;10.00;;;6.87;;
3747;SDS011;1889;50.058;8.688;2023-02-13T11:41:08;9.48;;;7.08;;
3747;SDS011;1889;50.058;8.688;2023-02-13T11:43:43;7.78;;;5.87;;
3747;SDS011;1889;50.058;8.688;2023-02-13T11:46:18;10.08;;;6.50;;
3747;SDS011;1889;50.058;8.688;2023-02-13T11:48:57;8.45;;;5.75;;
3747;SDS011;1889;50.058;8.688;2023-02-13T11:51:35;8.03;;;6.45;;
3747;SDS011;1889;50.058;8.688;2023-02-13T11:54:18;8.08;;;5.67;;
3747;SDS011;1889;50.058;8.688;2023-02-13T11:56:52;9.30;;;6.62;;
3747;SDS011;1889;50.058;8.688;2023-02-13T11:59:23;9.80;;;5.53;;
3747;SDS011;1889;50.058;8.688;2023-02-13T12:04:44;8.90;;;6.00;;
3747;SDS011;1889;50.058;8.688;2023-02-13T12:09:49;6.58;;;5.42;;
3747;SDS011;1889;50.058;8.688;2023-02-13T12:12:24;5.65;;;5.05;;
3747;SDS011;1889;50.058;8.688;2023-02-13T12:14:57;7.62;;;5.10;;
3747;SDS011;1889;50.058;8.688;2023-02-13T12:17:29;5.95;;;5.00;;
3747;SDS011;1889;50.058;8.688;2023-02-13T12:20:01;5.30;;;4.58;;
3747;SDS011;1889;50.058;8.688;2023-02-13T12:22:35;6.22;;;4.85;;
3747;SDS011;1889;50.058;8.688;2023-02-13T12:28:05;6.03;;;4.67;;
3747;SDS011;1889;50.058;8.688;2023-02-13T12:31:02;5.67;;;4.40;;
3747;SDS011;1889;50.058;8.688;2023-02-13T12:39:33;5.58;;;4.47;;
3747;SDS011;1889;50.058;8.688;2023-02-13T12:44:59;4.97;;;4.12;;
3747;SDS011;1889;50.058;8.688;2023-02-13T12:47:29;5.25;;;3.87;;
3747;SDS011;1889;50.058;8.688;2023-02-13T12:50:07;6.37;;;4.45;;
3747;SDS011;1889;50.058;8.688;2023-02-13T12:52:53;4.35;;;3.50;;
3747;SDS011;1889;50.058;8.688;2023-02-13T13:06:44;5.37;;;4.28;;
3747;SDS011;1889;50.058;8.688;2023-02-13T13:12:47;5.17;;;3.80;;
3747;SDS011;1889;50.058;8.688;2023-02-13T13:14:58;4.12;;;3.72;;
3747;SDS011;1889;50.058;8.688;2023-02-13T13:26:04;3.02;;;2.72;;
3747;SDS011;1889;50.058;8.688;2023-02-13T13:28:32;2.60;;;2.17;;
3747;SDS011;1889;50.058;8.688;2023-02-13T13:31:09;4.45;;;2.90;;
3747;SDS011;1889;50.058;8.688;2023-02-13T13:33:44;3.17;;;2.20;;
3747;SDS011;1889;50.058;8.688;2023-02-13T13:36:20;2.90;;;2.37;;
3747;SDS011;1889;50.058;8.688;2023-02-13T13:41:31;2.20;;;2.00;;
3747;SDS011;1889;50.058;8.688;2023-02-13T13:50:01;2.50;;;2.25;;
3747;SDS011;1889;50.058;8.688;2023-02-13T13:52:34;2.45;;;2.10;;
3747;SDS011;1889;50.058;8.688;2023-02-13T13:55:09;2.17;;;1.95;;
3747;SDS011;1889;50.058;8.688;2023-02-13T14:02:45;2.10;;;1.90;;
3747;SDS011;1889;50.058;8.688;2023-02-13T14:05:29;1.75;;;1.65;;
3747;SDS011;1889;50.058;8.688;2023-02-13T14:08:51;1.92;;;1.70;;
3747;SDS011;1889;50.058;8.688;2023-02-13T14:13:05;1.85;;;1.65;;
3747;SDS011;1889;50.058;8.688;2023-02-13T14:23:24;3.92;;;1.90;;
3747;SDS011;1889;50.058;8.688;2023-02-13T14:28:53;2.25;;;1.90;;
3747;SDS011;1889;50.058;8.688;2023-02-13T14:31:19;2.08;;;1.72;;
3747;SDS011;1889;50.058;8.688;2023-02-13T14:33:57;1.85;;;1.55;;
3747;SDS011;1889;50.058;8.688;2023-02-13T14:36:32;2.80;;;1.82;;
3747;SDS011;1889;50.058;8.688;2023-02-13T14:39:15;1.85;;;1.75;;
3747;SDS011;1889;50.058;8.688;2023-02-13T14:47:10;2.45;;;1.67;;
3747;SDS011;1889;50.058;8.688;2023-02-13T14:49:49;1.80;;;1.70;;
3747;SDS011;1889;50.058;8.688;2023-02-13T14:52:27;3.00;;;2.25;;
3747;SDS011;1889;50.058;8.688;2023-02-13T14:54:59;2.05;;;1.85;;
3747;SDS011;1889;50.058;8.688;2023-02-13T14:57:33;2.05;;;1.85;;
3747;SDS011;1889;50.058;8.688;2023-02-13T15:00:07;2.40;;;2.20;;
3747;SDS011;1889;50.058;8.688;2023-02-13T15:02:52;2.10;;;1.60;;
3747;SDS011;1889;50.058;8.688;2023-02-13T15:05:27;2.33;;;1.90;;
3747;SDS011;1889;50.058;8.688;2023-02-13T15:08:10;1.87;;;1.77;;
3747;SDS011;1889;50.058;8.688;2023-02-13T15:10:43;2.55;;;2.00;;
3747;SDS011;1889;50.058;8.688;2023-02-13T15:13:20;2.45;;;1.95;;
3747;SDS011;1889;50.058;8.688;2023-02-13T15:15:56;4.12;;;1.80;;
3747;SDS011;1889;50.058;8.688;2023-02-13T15:18:40;2.00;;;1.90;;
3747;SDS011;1889;50.058;8.688;2023-02-13T15:21:15;3.00;;;2.10;;
3747;SDS011;1889;50.058;8.688;2023-02-13T15:23:51;2.45;;;1.92;;
3747;SDS011;1889;50.058;8.688;2023-02-13T15:26:24;2.45;;;1.98;;
3747;SDS011;1889;50.058;8.688;2023-02-13T15:28:59;5.78;;;2.60;;
3747;SDS011;1889;50.058;8.688;2023-02-13T15:31:31;1.90;;;1.75;;
3747;SDS011;1889;50.058;8.688;2023-02-13T15:34:01;2.67;;;2.00;;
3747;SDS011;1889;50.058;8.688;2023-02-13T15:36:35;2.52;;;2.05;;
3747;SDS011;1889;50.058;8.688;2023-02-13T15:39:06;3.05;;;1.70;;
3747;SDS011;1889;50.058;8.688;2023-02-13T15:41:38;7.17;;;2.87;;
3747;SDS011;1889;50.058;8.688;2023-02-13T15:44:15;2.37;;;2.17;;
3747;SDS011;1889;50.058;8.688;2023-02-13T15:46:48;2.10;;;1.90;;
3747;SDS011;1889;50.058;8.688;2023-02-13T15:49:19;2.42;;;2.12;;
3747;SDS011;1889;50.058;8.688;2023-02-13T15:52:00;3.70;;;2.22;;
3747;SDS011;1889;50.058;8.688;2023-02-13T15:54:34;2.50;;;1.92;;
3747;SDS011;1889;50.058;8.688;2023-02-13T15:57:09;2.15;;;1.95;;
3747;SDS011;1889;50.058;8.688;2023-02-13T15:59:36;3.25;;;1.80;;
3747;SDS011;1889;50.058;8.688;2023-02-13T16:02:16;2.30;;;2.10;;
3747;SDS011;1889;50.058;8.688;2023-02-13T16:04:42;2.50;;;2.25;;
3747;SDS011;1889;50.058;8.688;2023-02-13T16:07:12;1.60;;;1.50;;
3747;SDS011;1889;50.058;8.688;2023-02-13T16:09:42;5.00;;;1.85;;
3747;SDS011;1889;50.058;8.688;2023-02-13T16:12:27;5.47;;;4.10;;
3747;SDS011;1889;50.058;8.688;2023-02-13T16:14:57;8.60;;;4.60;;
3747;SDS011;1889;50.058;8.688;2023-02-13T16:17:32;12.98;;;7.15;;
3747;SDS011;1889;50.058;8.688;2023-02-13T16:22:41;4.03;;;2.50;;
3747;SDS011;1889;50.058;8.688;2023-02-13T16:27:47;3.22;;;1.90;;
3747;SDS011;1889;50.058;8.688;2023-02-13T16:35:44;2.30;;;2.10;;
3747;SDS011;1889;50.058;8.688;2023-02-13T16:38:40;2.80;;;2.30;;
3747;SDS011;1889;50.058;8.688;2023-02-13T16:43:56;2.85;;;2.60;;
3747;SDS011;1889;50.058;8.688;2023-02-13T16:46:32;2.58;;;2.20;;
3747;SDS011;1889;50.058;8.688;2023-02-13T16:59:49;6.50;;;3.83;;
3747;SDS011;1889;50.058;8.688;2023-02-13T17:02:21;6.90;;;3.47;;
3747;SDS011;1889;50.058;8.688;2023-02-13T17:07:44;5.03;;;3.52;;
3747;SDS011;1889;50.058;8.688;2023-02-13T17:10:23;5.20;;;4.15;;
3747;SDS011;1889;50.058;8.688;2023-02-13T17:15:42;5.33;;;3.98;;
3747;SDS011;1889;50.058;8.688;2023-02-13T17:18:13;5.62;;;3.45;;
3747;SDS011;1889;50.058;8.688;2023-02-13T17:20:43;4.35;;;3.92;;
3747;SDS011;1889;50.058;8.688;2023-02-13T17:23:16;4.17;;;3.77;;
3747;SDS011;1889;50.058;8.688;2023-02-13T17:25:49;4.97;;;3.77;;
3747;SDS011;1889;50.058;8.688;2023-02-13T17:28:21;5.72;;;3.83;;
3747;SDS011;1889;50.058;8.688;2023-02-13T17:30:53;4.45;;;3.95;;
3747;SDS011;1889;50.058;8.688;2023-02-13T17:33:25;5.58;;;3.52;;
3747;SDS011;1889;50.058;8.688;2023-02-13T17:35:58;4.33;;;3.30;;
3747;SDS011;1889;50.058;8.688;2023-02-13T17:38:27;4.42;;;3.62;;
3747;SDS011;1889;50.058;8.688;2023-02-13T17:40:57;4.25;;;3.75;;
3747;SDS011;1889;50.058;8.688;2023-02-13T17:43:27;3.92;;;3.58;;
3747;SDS011;1889;50.058;8.688;2023-02-13T17:45:56;5.17;;;3.50;;
3747;SDS011;1889;50.058;8.688;2023-02-13T17:48:26;8.58;;;5.45;;
3747;SDS011;1889;50.058;8.688;2023-02-13T17:50:55;6.28;;;4.47;;
3747;SDS011;1889;50.058;8.688;2023-02-13T17:53:25;5.60;;;4.30;;
3747;SDS011;1889;50.058;8.688;2023-02-13T17:55:59;6.70;;;4.70;;
3747;SDS011;1889;50.058;8.688;2023-02-13T17:58:28;4.58;;;3.85;;
3747;SDS011;1889;50.058;8.688;2023-02-13T18:00:57;5.45;;;3.90;;
3747;SDS011;1889;50.058;8.688;2023-02-13T18:03:26;4.15;;;3.75;;
3747;SDS011;1889;50.058;8.688;2023-02-13T18:05:56;5.67;;;4.60;;
3747;SDS011;1889;50.058;8.688;2023-02-13T18:08:25;4.80;;;4.28;;
3747;SDS011;1889;50.058;8.688;2023-02-13T18:10:54;5.42;;;4.15;;
3747;SDS011;1889;50.058;8.688;2023-02-13T18:13:24;7.83;;;6.60;;
3747;SDS011;1889;50.058;8.688;2023-02-13T18:15:53;10.23;;;6.87;;
3747;SDS011;1889;50.058;8.688;2023-02-13T18:18:22;6.58;;;5.78;;
3747;SDS011;1889;50.058;8.688;2023-02-13T18:20:54;7.12;;;5.00;;
3747;SDS011;1889;50.058;8.688;2023-02-13T18:23:25;5.85;;;4.53;;
3747;SDS011;1889;50.058;8.688;2023-02-13T18:26:02;7.85;;;5.00;;